Time,TemperatureF,DewpointF,PressureIn,WindDirection,WindDirectionDegrees,WindSpeedMPH,WindSpeedGustMPH,Humidity,HourlyPrecipIn,Conditions,Clouds,dailyrainin,SoftwareType,DateUTC
2013-02-04 00:02:00,42.6,42.1,30.02,NW,304,0.0,0.0,98,0.00,,,0.00,meteohub,2013-02-04 08:02:00,
2013-02-04 00:07:00,43.0,42.4,30.02,NW,304,0.0,0.0,98,0.00,,,0.00,meteohub,2013-02-04 08:07:00,
2013-02-04 00:12:00,43.2,42.6,30.01,NW,304,0.0,0.0,98,0.00,,,0.00,meteohub,2013-02-04 08:12:00,
2013-02-04 00:17:00,43.2,42.6,30.01,NW,304,0.0,0.0,98,0.00,,,0.00,meteohub,2013-02-04 08:17:00,
2013-02-04 00:22:00,43.2,42.6,30.01,NW,304,0.0,0.0,98,0.00,,,0.00,meteohub,2013-02-04 08:22:00,
2013-02-04 00:27:00,43.0,42.4,30.01,NW,304,0.0,0.0,98,0.00,,,0.00,meteohub,2013-02-04 08:27:00,
2013-02-04 00:32:00,42.8,42.3,30.01,NW,304,0.0,0.0,98,0.00,,,0.00,meteohub,2013-02-04 08:32:00,
2013-02-04 00:37:00,42.6,42.1,30.01,NW,304,0.0,0.0,98,0.00,,,0.00,meteohub,2013-02-04 08:37:00,
2013-02-04 00:42:00,42.4,41.7,30.01,NW,304,0.0,0.0,97,0.00,,,0.00,meteohub,2013-02-04 08:42:00,
2013-02-04 00:47:00,42.4,41.7,30.01,NW,304,0.0,0.0,97,0.00,,,0.00,meteohub,2013-02-04 08:47:00,
2013-02-04 00:52:00,42.3,41.5,30.01,NW,304,0.0,0.0,97,0.00,,,0.00,meteohub,2013-02-04 08:52:00,
2013-02-04 00:57:00,42.1,41.4,30.01,NW,304,0.0,0.0,97,0.00,,,0.00,meteohub,2013-02-04 08:57:00,
2013-02-04 01:02:00,42.1,41.5,30.01,NW,304,0.0,0.0,98,0.00,,,0.00,meteohub,2013-02-04 09:02:00,
2013-02-04 01:07:00,42.1,41.4,30.01,NW,304,0.0,0.0,97,0.00,,,0.00,meteohub,2013-02-04 09:07:00,
2013-02-04 01:12:00,42.1,41.4,30.02,NW,304,0.0,0.0,97,0.00,,,0.00,meteohub,2013-02-04 09:12:00,
2013-02-04 01:17:00,42.1,41.4,30.02,NW,304,0.0,0.0,97,0.00,,,0.00,meteohub,2013-02-04 09:17:00,
2013-02-04 01:22:00,41.9,41.2,30.02,NW,304,0.0,0.0,97,0.00,,,0.00,meteohub,2013-02-04 09:22:00,
2013-02-04 01:27:00,42.1,41.5,30.02,NW,304,0.0,0.0,98,0.00,,,0.00,meteohub,2013-02-04 09:27:00,
2013-02-04 01:32:00,41.7,41.2,30.02,NW,304,0.0,0.0,98,0.00,,,0.00,meteohub,2013-02-04 09:32:00,
2013-02-04 01:37:00,41.9,41.4,30.02,NW,304,0.0,0.0,98,0.00,,,0.00,meteohub,2013-02-04 09:37:00,
2013-02-04 01:42:00,41.9,41.4,30.02,NW,304,0.0,0.0,98,0.00,,,0.00,meteohub,2013-02-04 09:42:00,
2013-02-04 01:47:00,41.7,41.2,30.02,NW,304,0.0,0.0,98,0.00,,,0.00,meteohub,2013-02-04 09:47:00,
2013-02-04 01:52:00,41.5,41.0,30.02,NW,304,0.0,0.0,98,0.00,,,0.00,meteohub,2013-02-04 09:52:00,
2013-02-04 01:57:00,41.4,40.6,30.02,NW,304,0.0,0.0,97,0.00,,,0.00,meteohub,2013-02-04 09:57:00,
2013-02-04 02:02:00,41.4,40.6,30.02,NW,304,0.0,0.0,97,0.00,,,0.00,meteohub,2013-02-04 10:02:00,
2013-02-04 02:07:00,41.2,40.5,30.02,NW,304,0.0,0.0,97,0.00,,,0.00,meteohub,2013-02-04 10:07:00,
2013-02-04 02:12:00,41.2,40.6,30.02,NW,304,0.0,0.0,98,0.00,,,0.00,meteohub,2013-02-04 10:12:00,
2013-02-04 02:17:00,41.0,40.3,30.02,NW,304,0.0,0.0,97,0.00,,,0.00,meteohub,2013-02-04 10:17:00,
2013-02-04 02:22:00,40.8,40.1,30.02,NW,304,0.0,0.0,97,0.00,,,0.00,meteohub,2013-02-04 10:22:00,
2013-02-04 02:27:00,40.6,39.9,30.02,NW,304,0.0,0.0,97,0.00,,,0.00,meteohub,2013-02-04 10:27:00,
2013-02-04 02:32:00,40.8,40.3,30.02,NW,304,0.0,0.0,98,0.00,,,0.00,meteohub,2013-02-04 10:32:00,
2013-02-04 02:37:00,40.8,40.3,30.02,NW,304,0.0,0.0,98,0.00,,,0.00,meteohub,2013-02-04 10:37:00,
2013-02-04 02:42:00,40.8,40.3,30.01,NW,304,0.0,0.0,98,0.00,,,0.00,meteohub,2013-02-04 10:42:00,
2013-02-04 02:47:00,40.8,40.3,30.01,NW,304,0.0,0.0,98,0.00,,,0.00,meteohub,2013-02-04 10:47:00,
2013-02-04 02:52:00,40.8,40.3,30.01,NW,304,0.0,0.0,98,0.00,,,0.00,meteohub,2013-02-04 10:52:00,
2013-02-04 02:57:00,40.6,40.1,30.01,NW,304,0.0,0.0,98,0.00,,,0.00,meteohub,2013-02-04 10:57:00,
2013-02-04 03:02:00,40.6,40.1,30.01,NW,304,0.0,0.0,98,0.00,,,0.00,meteohub,2013-02-04 11:02:00,
2013-02-04 03:07:00,40.6,40.1,30.01,NW,304,0.0,0.0,98,0.00,,,0.00,meteohub,2013-02-04 11:07:00,
2013-02-04 03:12:00,40.6,40.1,30.01,NW,304,0.0,0.0,98,0.00,,,0.00,meteohub,2013-02-04 11:12:00,
2013-02-04 03:17:00,40.8,40.3,30.01,NW,304,0.0,0.0,98,0.00,,,0.00,meteohub,2013-02-04 11:17:00,
2013-02-04 03:22:00,41.0,40.5,30.01,NW,304,0.0,0.0,98,0.00,,,0.00,meteohub,2013-02-04 11:22:00,
2013-02-04 03:27:00,40.8,40.3,30.00,NW,304,0.0,0.0,98,0.00,,,0.00,meteohub,2013-02-04 11:27:00,
2013-02-04 03:32:00,40.8,40.3,30.00,NW,304,0.0,0.0,98,0.00,,,0.00,meteohub,2013-02-04 11:32:00,
2013-02-04 03:37:00,40.8,40.3,30.00,NW,304,0.0,0.0,98,0.00,,,0.00,meteohub,2013-02-04 11:37:00,
2013-02-04 03:42:00,40.6,40.1,30.00,NW,304,0.0,0.0,98,0.00,,,0.00,meteohub,2013-02-04 11:42:00,
2013-02-04 03:47:00,40.6,40.1,30.00,NW,304,0.0,0.0,98,0.00,,,0.00,meteohub,2013-02-04 11:47:00,
2013-02-04 03:52:00,40.6,40.1,30.00,NW,304,0.0,0.0,98,0.00,,,0.00,meteohub,2013-02-04 11:52:00,
2013-02-04 03:57:00,40.6,40.1,30.00,NW,304,0.0,0.0,98,0.00,,,0.00,meteohub,2013-02-04 11:57:00,
2013-02-04 04:02:00,40.5,39.9,30.00,NW,304,0.0,0.0,98,0.00,,,0.00,meteohub,2013-02-04 12:02:00,
2013-02-04 04:07:00,40.5,39.9,30.00,NW,304,0.0,0.0,98,0.00,,,0.00,meteohub,2013-02-04 12:07:00,
2013-02-04 04:12:00,40.3,39.7,30.00,NW,304,0.0,0.0,98,0.01,,,0.01,meteohub,2013-02-04 12:12:00,
2013-02-04 04:17:00,40.3,39.7,30.00,NW,304,0.0,0.0,98,0.01,,,0.01,meteohub,2013-02-04 12:17:00,
2013-02-04 04:22:00,40.1,39.6,30.00,NW,304,0.0,0.0,98,0.01,,,0.01,meteohub,2013-02-04 12:22:00,
2013-02-04 04:27:00,39.9,39.4,30.00,NW,304,0.0,0.0,98,0.01,,,0.01,meteohub,2013-02-04 12:27:00,
2013-02-04 04:32:00,39.9,39.4,30.00,NW,304,0.0,0.0,98,0.01,,,0.01,meteohub,2013-02-04 12:32:00,
2013-02-04 04:37:00,39.9,39.4,30.00,NW,304,0.0,0.0,98,0.01,,,0.01,meteohub,2013-02-04 12:37:00,
2013-02-04 04:42:00,39.7,39.2,30.00,NW,304,0.0,0.0,98,0.01,,,0.01,meteohub,2013-02-04 12:42:00,
2013-02-04 04:47:00,39.9,39.4,30.00,NW,304,0.0,0.0,98,0.01,,,0.01,meteohub,2013-02-04 12:47:00,
2013-02-04 04:52:00,39.9,39.4,30.00,NW,304,0.0,0.0,98,0.01,,,0.01,meteohub,2013-02-04 12:52:00,
2013-02-04 04:57:00,39.9,39.4,30.01,NW,304,0.0,0.0,98,0.01,,,0.01,meteohub,2013-02-04 12:57:00,
2013-02-04 05:02:00,39.9,39.4,30.01,NW,304,0.0,0.0,98,0.01,,,0.01,meteohub,2013-02-04 13:02:00,
2013-02-04 05:07:00,39.7,39.2,30.01,NW,304,0.0,0.0,98,0.01,,,0.01,meteohub,2013-02-04 13:07:00,
2013-02-04 05:12:00,39.6,39.0,30.01,NW,304,0.0,0.0,98,0.00,,,0.01,meteohub,2013-02-04 13:12:00,
2013-02-04 05:17:00,39.4,38.8,30.01,NW,304,0.0,0.0,98,0.00,,,0.01,meteohub,2013-02-04 13:17:00,
2013-02-04 05:22:00,39.2,38.7,30.01,NW,304,0.0,0.0,98,0.00,,,0.01,meteohub,2013-02-04 13:22:00,
2013-02-04 05:27:00,39.2,38.7,30.01,NW,304,0.0,0.0,98,0.00,,,0.01,meteohub,2013-02-04 13:27:00,
2013-02-04 05:32:00,39.0,38.5,30.01,NW,304,0.0,0.0,98,0.00,,,0.01,meteohub,2013-02-04 13:32:00,
2013-02-04 05:37:00,39.0,38.5,30.01,NW,304,0.0,0.0,98,0.00,,,0.01,meteohub,2013-02-04 13:37:00,
2013-02-04 05:42:00,39.0,38.5,30.01,NW,304,0.0,0.0,98,0.00,,,0.01,meteohub,2013-02-04 13:42:00,
2013-02-04 05:47:00,39.0,38.5,30.01,NW,304,0.0,0.0,98,0.00,,,0.01,meteohub,2013-02-04 13:47:00,
2013-02-04 05:52:00,39.0,38.5,30.01,NW,304,0.0,0.0,98,0.00,,,0.01,meteohub,2013-02-04 13:52:00,
2013-02-04 05:57:00,39.0,38.5,30.00,NW,304,0.0,0.0,98,0.00,,,0.01,meteohub,2013-02-04 13:57:00,
2013-02-04 06:02:00,38.8,38.3,30.00,NW,304,0.0,0.0,98,0.00,,,0.01,meteohub,2013-02-04 14:02:00,
2013-02-04 06:07:00,38.8,38.3,30.00,NW,304,0.0,0.0,98,0.00,,,0.01,meteohub,2013-02-04 14:07:00,
2013-02-04 06:12:00,38.7,38.1,30.01,NW,304,0.0,0.0,98,0.00,,,0.01,meteohub,2013-02-04 14:12:00,
2013-02-04 06:17:00,38.7,38.1,30.01,NW,304,0.0,0.0,98,0.00,,,0.01,meteohub,2013-02-04 14:17:00,
2013-02-04 06:22:00,38.7,38.1,30.01,NW,304,0.0,0.0,98,0.00,,,0.01,meteohub,2013-02-04 14:22:00,
2013-02-04 06:27:00,38.7,38.1,30.01,NW,304,0.0,0.0,98,0.00,,,0.01,meteohub,2013-02-04 14:27:00,
2013-02-04 06:32:00,38.7,38.1,30.01,NW,304,0.0,0.0,98,0.00,,,0.01,meteohub,2013-02-04 14:32:00,
2013-02-04 06:37:00,38.7,38.1,30.01,NW,304,0.0,0.0,98,0.00,,,0.01,meteohub,2013-02-04 14:37:00,
2013-02-04 06:42:00,38.7,38.1,30.02,NW,304,0.0,0.0,98,0.00,,,0.01,meteohub,2013-02-04 14:42:00,
2013-02-04 06:47:00,39.0,38.5,30.02,NW,304,0.0,0.0,98,0.00,,,0.01,meteohub,2013-02-04 14:47:00,
2013-02-04 06:52:00,39.0,38.5,30.02,NW,304,0.0,0.0,98,0.00,,,0.01,meteohub,2013-02-04 14:52:00,
2013-02-04 06:57:00,39.0,38.5,30.02,NW,304,0.0,0.0,98,0.00,,,0.01,meteohub,2013-02-04 14:57:00,
2013-02-04 07:02:00,38.8,38.3,30.02,NW,304,0.0,0.0,98,0.00,,,0.01,meteohub,2013-02-04 15:02:00,
2013-02-04 07:07:00,38.8,38.3,30.02,NW,304,0.0,0.0,98,0.00,,,0.01,meteohub,2013-02-04 15:07:00,
2013-02-04 07:12:00,38.7,38.1,30.02,NW,304,0.0,0.0,98,0.00,,,0.01,meteohub,2013-02-04 15:12:00,
2013-02-04 07:17:00,38.5,37.9,30.02,NW,304,0.0,0.0,98,0.00,,,0.01,meteohub,2013-02-04 15:17:00,
2013-02-04 07:22:00,38.3,37.8,30.02,NW,304,0.0,0.0,98,0.00,,,0.01,meteohub,2013-02-04 15:22:00,
2013-02-04 07:27:00,38.1,37.6,30.03,NW,304,0.0,0.0,98,0.00,,,0.01,meteohub,2013-02-04 15:27:00,
2013-02-04 07:32:00,37.9,37.4,30.03,NW,304,0.0,0.0,98,0.00,,,0.01,meteohub,2013-02-04 15:32:00,
2013-02-04 07:37:00,37.8,37.2,30.03,NW,304,0.0,0.0,98,0.00,,,0.01,meteohub,2013-02-04 15:37:00,
2013-02-04 07:42:00,37.6,37.0,30.03,NW,304,0.0,0.0,98,0.00,,,0.01,meteohub,2013-02-04 15:42:00,
2013-02-04 07:47:00,37.6,37.0,30.03,NW,304,0.0,0.0,98,0.00,,,0.01,meteohub,2013-02-04 15:47:00,
2013-02-04 07:52:00,37.6,37.0,30.03,NW,304,0.0,0.0,98,0.00,,,0.01,meteohub,2013-02-04 15:52:00,
2013-02-04 07:57:00,37.6,37.0,30.03,NW,304,0.0,0.0,98,0.00,,,0.01,meteohub,2013-02-04 15:57:00,
2013-02-04 08:02:00,37.6,37.0,30.03,NW,304,0.0,0.0,98,0.00,,,0.01,meteohub,2013-02-04 16:02:00,
2013-02-04 08:07:00,37.6,37.0,30.03,NW,304,0.0,0.0,98,0.00,,,0.01,meteohub,2013-02-04 16:07:00,
2013-02-04 08:12:00,37.6,37.0,30.03,NW,304,0.0,0.0,98,0.00,,,0.01,meteohub,2013-02-04 16:12:00,
2013-02-04 08:17:00,37.9,37.4,30.03,NW,304,0.0,0.0,98,0.00,,,0.01,meteohub,2013-02-04 16:17:00,
2013-02-04 08:22:00,39.0,38.5,30.03,NW,304,0.0,0.0,98,0.00,,,0.01,meteohub,2013-02-04 16:22:00,
2013-02-04 08:27:00,40.6,40.1,30.03,NW,304,0.0,0.0,98,0.00,,,0.01,meteohub,2013-02-04 16:27:00,
2013-02-04 08:32:00,41.7,41.2,30.03,NW,304,0.0,1.0,98,0.00,,,0.01,meteohub,2013-02-04 16:32:00,
2013-02-04 08:37:00,42.4,41.9,30.03,NW,304,1.0,1.0,98,0.00,,,0.01,meteohub,2013-02-04 16:37:00,
2013-02-04 08:42:00,43.0,42.8,30.03,NW,304,2.0,2.0,99,0.00,,,0.01,meteohub,2013-02-04 16:42:00,
2013-02-04 08:47:00,43.0,42.4,30.03,NW,304,2.0,3.0,98,0.00,,,0.01,meteohub,2013-02-04 16:47:00,
2013-02-04 08:52:00,43.0,42.4,30.03,NW,304,0.0,3.0,98,0.00,,,0.01,meteohub,2013-02-04 16:52:00,
2013-02-04 08:57:00,43.0,42.4,30.04,NW,304,0.0,3.0,98,0.00,,,0.01,meteohub,2013-02-04 16:57:00,
2013-02-04 09:02:00,42.8,42.6,30.04,NW,304,0.0,3.0,99,0.00,,,0.01,meteohub,2013-02-04 17:02:00,
2013-02-04 09:07:00,42.4,42.3,30.04,NW,304,0.0,3.0,99,0.00,,,0.01,meteohub,2013-02-04 17:07:00,
2013-02-04 09:12:00,42.3,41.7,30.04,NW,304,0.0,3.0,98,0.00,,,0.01,meteohub,2013-02-04 17:12:00,
2013-02-04 09:17:00,42.1,41.9,30.04,NW,304,0.0,1.0,99,0.00,,,0.01,meteohub,2013-02-04 17:17:00,
2013-02-04 09:22:00,42.3,41.7,30.04,NW,304,0.0,0.0,98,0.00,,,0.01,meteohub,2013-02-04 17:22:00,
2013-02-04 09:27:00,42.3,42.1,30.04,NW,304,0.0,0.0,99,0.00,,,0.01,meteohub,2013-02-04 17:27:00,
2013-02-04 09:32:00,42.4,41.9,30.04,NW,304,1.0,0.0,98,0.00,,,0.01,meteohub,2013-02-04 17:32:00,
2013-02-04 09:37:00,43.2,42.6,30.04,NW,304,2.0,2.0,98,0.00,,,0.01,meteohub,2013-02-04 17:37:00,
2013-02-04 09:42:00,43.9,43.7,30.04,NW,304,3.0,3.0,99,0.00,,,0.01,meteohub,2013-02-04 17:42:00,
2013-02-04 09:47:00,44.1,43.9,30.04,NW,304,0.0,3.0,99,0.00,,,0.01,meteohub,2013-02-04 17:47:00,
2013-02-04 09:52:00,44.4,44.2,30.04,NW,304,1.0,3.0,99,0.00,,,0.01,meteohub,2013-02-04 17:52:00,
2013-02-04 09:57:00,44.8,44.6,30.04,NW,304,0.0,3.0,99,0.00,,,0.01,meteohub,2013-02-04 17:57:00,
2013-02-04 10:02:00,45.1,45.0,30.04,NW,304,1.0,2.0,99,0.00,,,0.01,meteohub,2013-02-04 18:02:00,
2013-02-04 10:07:00,45.5,45.3,30.04,NW,304,0.0,3.0,99,0.00,,,0.01,meteohub,2013-02-04 18:07:00,
2013-02-04 10:12:00,45.7,45.5,30.05,NW,304,2.0,4.0,99,0.00,,,0.01,meteohub,2013-02-04 18:12:00,
2013-02-04 10:17:00,46.0,45.5,30.05,NW,304,0.0,4.0,98,0.00,,,0.01,meteohub,2013-02-04 18:17:00,
2013-02-04 10:22:00,46.6,45.5,30.05,NW,304,1.0,4.0,96,0.00,,,0.01,meteohub,2013-02-04 18:22:00,
2013-02-04 10:27:00,47.1,45.7,30.05,NW,304,0.0,3.0,95,0.00,,,0.01,meteohub,2013-02-04 18:27:00,
2013-02-04 10:32:00,48.0,46.4,30.05,NW,304,0.0,3.0,94,0.00,,,0.01,meteohub,2013-02-04 18:32:00,
2013-02-04 10:37:00,48.9,46.9,30.05,NW,304,0.0,2.0,93,0.00,,,0.01,meteohub,2013-02-04 18:37:00,
2013-02-04 10:42:00,49.5,47.3,30.04,NW,304,0.0,2.0,92,0.00,,,0.01,meteohub,2013-02-04 18:42:00,
2013-02-04 10:47:00,50.2,47.7,30.04,NW,304,0.0,2.0,91,0.00,,,0.01,meteohub,2013-02-04 18:47:00,
2013-02-04 10:52:00,50.5,47.7,30.04,NW,304,3.0,4.0,90,0.00,,,0.01,meteohub,2013-02-04 18:52:00,
2013-02-04 10:57:00,51.1,48.0,30.03,NW,304,1.0,4.0,89,0.00,,,0.01,meteohub,2013-02-04 18:57:00,
2013-02-04 11:02:00,51.4,48.4,30.03,NW,304,3.0,4.0,89,0.00,,,0.01,meteohub,2013-02-04 19:02:00,
2013-02-04 11:07:00,51.4,47.7,30.03,NW,304,1.0,4.0,87,0.00,,,0.01,meteohub,2013-02-04 19:07:00,
2013-02-04 11:12:00,51.4,47.7,30.03,NW,305,0.0,4.0,87,0.00,,,0.01,meteohub,2013-02-04 19:12:00,
2013-02-04 11:17:00,51.4,48.0,30.03,NW,306,0.0,4.0,88,0.00,,,0.01,meteohub,2013-02-04 19:17:00,
2013-02-04 11:22:00,51.6,47.8,30.03,NW,306,0.0,5.0,87,0.00,,,0.01,meteohub,2013-02-04 19:22:00,
2013-02-04 11:27:00,52.2,48.7,30.02,NW,306,0.0,5.0,88,0.00,,,0.01,meteohub,2013-02-04 19:27:00,
2013-02-04 11:32:00,52.5,48.7,30.02,NW,306,0.0,4.0,87,0.00,,,0.01,meteohub,2013-02-04 19:32:00,
2013-02-04 11:37:00,52.9,48.6,30.02,NW,306,0.0,4.0,85,0.00,,,0.01,meteohub,2013-02-04 19:37:00,
2013-02-04 11:42:00,53.1,48.4,30.02,NW,306,0.0,4.0,84,0.00,,,0.01,meteohub,2013-02-04 19:42:00,
2013-02-04 11:47:00,53.2,48.2,30.02,NW,306,0.0,3.0,83,0.00,,,0.01,meteohub,2013-02-04 19:47:00,
2013-02-04 11:52:00,53.4,47.7,30.02,NW,306,0.0,3.0,81,0.00,,,0.01,meteohub,2013-02-04 19:52:00,
2013-02-04 11:57:00,53.6,47.8,30.02,NW,306,1.0,3.0,81,0.00,,,0.01,meteohub,2013-02-04 19:57:00,
2013-02-04 12:02:00,53.8,48.7,30.02,NW,306,0.0,4.0,83,0.00,,,0.01,meteohub,2013-02-04 20:02:00,
2013-02-04 12:07:00,53.8,48.7,30.02,NW,306,0.0,4.0,83,0.00,,,0.01,meteohub,2013-02-04 20:07:00,
2013-02-04 12:12:00,53.8,48.4,30.01,NW,306,3.0,4.0,82,0.00,,,0.01,meteohub,2013-02-04 20:12:00,
2013-02-04 12:17:00,53.6,48.6,30.01,NW,306,0.0,4.0,83,0.00,,,0.01,meteohub,2013-02-04 20:17:00,
2013-02-04 12:22:00,53.4,48.0,30.01,NW,306,0.0,4.0,82,0.00,,,0.01,meteohub,2013-02-04 20:22:00,
2013-02-04 12:27:00,53.2,47.8,30.00,NW,306,1.0,4.0,82,0.00,,,0.01,meteohub,2013-02-04 20:27:00,
2013-02-04 12:32:00,53.1,48.0,30.00,NW,306,0.0,4.0,83,0.00,,,0.01,meteohub,2013-02-04 20:32:00,
2013-02-04 12:37:00,53.2,48.2,30.00,NW,306,0.0,4.0,83,0.00,,,0.01,meteohub,2013-02-04 20:37:00,
2013-02-04 12:42:00,53.4,48.4,30.00,NW,306,1.0,4.0,83,0.00,,,0.01,meteohub,2013-02-04 20:42:00,
2013-02-04 12:47:00,53.6,48.6,30.00,NW,306,0.0,4.0,83,0.00,,,0.01,meteohub,2013-02-04 20:47:00,
2013-02-04 12:52:00,53.8,48.7,30.00,NW,306,0.0,3.0,83,0.00,,,0.01,meteohub,2013-02-04 20:52:00,
2013-02-04 12:57:00,54.1,49.1,29.99,NW,306,0.0,3.0,83,0.00,,,0.01,meteohub,2013-02-04 20:57:00,
2013-02-04 13:02:00,54.1,48.7,29.99,NW,306,1.0,3.0,82,0.00,,,0.01,meteohub,2013-02-04 21:02:00,
2013-02-04 13:07:00,54.1,48.4,29.99,NW,306,1.0,3.0,81,0.00,,,0.01,meteohub,2013-02-04 21:07:00,
2013-02-04 13:12:00,54.1,48.7,29.98,NW,306,0.0,3.0,82,0.00,,,0.01,meteohub,2013-02-04 21:12:00,
2013-02-04 13:17:00,54.3,48.6,29.98,NW,306,1.0,3.0,81,0.00,,,0.01,meteohub,2013-02-04 21:17:00,
2013-02-04 13:22:00,54.3,49.3,29.98,NW,306,0.0,2.0,83,0.00,,,0.01,meteohub,2013-02-04 21:22:00,
2013-02-04 13:27:00,54.3,49.3,29.98,NW,306,0.0,3.0,83,0.00,,,0.01,meteohub,2013-02-04 21:27:00,
2013-02-04 13:32:00,54.3,49.3,29.98,NW,306,0.0,3.0,83,0.00,,,0.01,meteohub,2013-02-04 21:32:00,
2013-02-04 13:37:00,54.5,49.5,29.98,NW,306,0.0,3.0,83,0.00,,,0.01,meteohub,2013-02-04 21:37:00,
2013-02-04 13:42:00,54.7,49.6,29.97,NW,306,1.0,3.0,83,0.00,,,0.01,meteohub,2013-02-04 21:42:00,
2013-02-04 13:47:00,54.5,49.5,29.97,NW,306,0.0,3.0,83,0.00,,,0.01,meteohub,2013-02-04 21:47:00,
2013-02-04 13:52:00,54.5,49.5,29.97,NW,306,0.0,2.0,83,0.00,,,0.01,meteohub,2013-02-04 21:52:00,
2013-02-04 13:57:00,54.5,49.5,29.96,NW,306,0.0,2.0,83,0.00,,,0.01,meteohub,2013-02-04 21:57:00,
2013-02-04 14:02:00,54.7,49.6,29.96,NW,306,0.0,1.0,83,0.00,,,0.01,meteohub,2013-02-04 22:02:00,
2013-02-04 14:07:00,54.7,49.6,29.96,NW,306,0.0,0.0,83,0.00,,,0.01,meteohub,2013-02-04 22:07:00,
2013-02-04 14:12:00,54.9,49.8,29.95,NW,306,0.0,0.0,83,0.00,,,0.01,meteohub,2013-02-04 22:12:00,
2013-02-04 14:17:00,55.0,49.3,29.95,NW,306,0.0,0.0,81,0.00,,,0.01,meteohub,2013-02-04 22:17:00,
2013-02-04 14:22:00,55.2,50.2,29.95,NW,306,0.0,0.0,83,0.00,,,0.01,meteohub,2013-02-04 22:22:00,
2013-02-04 14:27:00,55.4,50.0,29.95,NW,306,0.0,0.0,82,0.00,,,0.01,meteohub,2013-02-04 22:27:00,
2013-02-04 14:32:00,55.6,49.8,29.95,NW,306,0.0,1.0,81,0.00,,,0.01,meteohub,2013-02-04 22:32:00,
2013-02-04 14:37:00,55.8,49.6,29.95,NW,306,0.0,1.0,80,0.00,,,0.01,meteohub,2013-02-04 22:37:00,
2013-02-04 14:42:00,55.9,49.5,29.95,NW,306,0.0,1.0,79,0.00,,,0.01,meteohub,2013-02-04 22:42:00,
2013-02-04 14:47:00,56.1,49.6,29.95,NW,306,0.0,3.0,79,0.00,,,0.01,meteohub,2013-02-04 22:47:00,
2013-02-04 14:52:00,56.1,49.3,29.95,NW,306,0.0,3.0,78,0.00,,,0.01,meteohub,2013-02-04 22:52:00,
2013-02-04 14:57:00,56.1,49.3,29.95,NW,306,0.0,1.0,78,0.00,,,0.01,meteohub,2013-02-04 22:57:00,
2013-02-04 15:02:00,56.1,49.6,29.95,NW,306,0.0,1.0,79,0.00,,,0.01,meteohub,2013-02-04 23:02:00,
2013-02-04 15:07:00,55.9,49.5,29.95,NW,306,0.0,1.0,79,0.00,,,0.01,meteohub,2013-02-04 23:07:00,
2013-02-04 15:12:00,55.8,49.6,29.95,NW,306,0.0,1.0,80,0.00,,,0.01,meteohub,2013-02-04 23:12:00,
2013-02-04 15:17:00,55.6,49.8,29.95,NW,306,0.0,0.0,81,0.00,,,0.01,meteohub,2013-02-04 23:17:00,
2013-02-04 15:22:00,55.2,49.8,29.95,NW,306,0.0,0.0,82,0.00,,,0.01,meteohub,2013-02-04 23:22:00,
2013-02-04 15:27:00,55.0,49.6,29.95,NW,306,0.0,0.0,82,0.00,,,0.01,meteohub,2013-02-04 23:27:00,
2013-02-04 15:32:00,55.0,49.6,29.95,NW,306,0.0,0.0,82,0.00,,,0.01,meteohub,2013-02-04 23:32:00,
2013-02-04 15:37:00,54.9,49.5,29.95,NW,306,0.0,0.0,82,0.00,,,0.01,meteohub,2013-02-04 23:37:00,
2013-02-04 15:42:00,54.9,49.5,29.96,NW,306,0.0,0.0,82,0.00,,,0.01,meteohub,2013-02-04 23:42:00,
2013-02-04 15:47:00,54.7,49.3,29.96,NW,306,0.0,0.0,82,0.00,,,0.01,meteohub,2013-02-04 23:47:00,
2013-02-04 15:52:00,54.7,49.6,29.96,NW,306,0.0,0.0,83,0.00,,,0.01,meteohub,2013-02-04 23:52:00,
2013-02-04 15:57:00,54.7,49.6,29.96,NW,306,0.0,1.0,83,0.00,,,0.01,meteohub,2013-02-04 23:57:00,
2013-02-04 16:02:00,54.7,49.6,29.96,NW,306,0.0,1.0,83,0.00,,,0.01,meteohub,2013-02-05 00:02:00,
2013-02-04 16:07:00,54.5,49.8,29.96,NW,306,0.0,1.0,84,0.00,,,0.00,meteohub,2013-02-05 00:07:00,
2013-02-04 16:12:00,54.5,49.8,29.95,NW,306,0.0,1.0,84,0.00,,,0.00,meteohub,2013-02-05 00:12:00,
2013-02-04 16:17:00,54.3,49.6,29.95,NW,306,0.0,1.0,84,0.00,,,0.00,meteohub,2013-02-05 00:17:00,
2013-02-04 16:22:00,54.3,49.6,29.95,NW,306,0.0,0.0,84,0.00,,,0.00,meteohub,2013-02-05 00:22:00,
2013-02-04 16:28:00,54.3,49.6,29.95,NW,306,0.0,0.0,84,0.00,,,0.00,meteohub,2013-02-05 00:28:00,
2013-02-04 16:33:00,54.1,49.8,29.95,NW,306,0.0,0.0,85,0.00,,,0.00,meteohub,2013-02-05 00:33:00,
2013-02-04 16:38:00,54.0,49.6,29.95,NW,306,0.0,0.0,85,0.00,,,0.00,meteohub,2013-02-05 00:38:00,
2013-02-04 16:43:00,53.8,49.6,29.95,NW,306,0.0,0.0,86,0.00,,,0.00,meteohub,2013-02-05 00:43:00,
2013-02-04 16:48:00,53.4,49.3,29.95,NW,306,0.0,0.0,86,0.00,,,0.00,meteohub,2013-02-05 00:48:00,
2013-02-04 16:53:00,53.2,49.5,29.95,NW,306,0.0,0.0,87,0.00,,,0.00,meteohub,2013-02-05 00:53:00,
2013-02-04 16:58:00,52.9,48.7,29.95,NW,306,0.0,0.0,86,0.00,,,0.00,meteohub,2013-02-05 00:58:00,
2013-02-04 17:03:00,52.5,48.7,29.95,NW,306,0.0,0.0,87,0.00,,,0.00,meteohub,2013-02-05 01:03:00,
2013-02-04 17:08:00,52.2,48.7,29.95,NW,306,0.0,0.0,88,0.00,,,0.00,meteohub,2013-02-05 01:08:00,
2013-02-04 17:13:00,51.6,48.2,29.95,NW,306,0.0,0.0,88,0.00,,,0.00,meteohub,2013-02-05 01:13:00,
2013-02-04 17:18:00,51.4,48.4,29.95,NW,306,0.0,0.0,89,0.00,,,0.00,meteohub,2013-02-05 01:18:00,
2013-02-04 17:23:00,51.1,48.0,29.95,NW,306,0.0,0.0,89,0.00,,,0.00,meteohub,2013-02-05 01:23:00,
2013-02-04 17:28:00,50.7,47.3,29.94,NW,306,0.0,0.0,88,0.00,,,0.00,meteohub,2013-02-05 01:28:00,
2013-02-04 17:33:00,50.4,47.3,29.94,NW,306,0.0,0.0,89,0.00,,,0.00,meteohub,2013-02-05 01:33:00,
2013-02-04 17:38:00,49.8,46.9,29.94,NW,306,0.0,0.0,90,0.00,,,0.00,meteohub,2013-02-05 01:38:00,
2013-02-04 17:43:00,49.5,46.6,29.94,NW,306,0.0,0.0,90,0.00,,,0.00,meteohub,2013-02-05 01:43:00,
2013-02-04 17:48:00,49.1,46.2,29.94,NW,306,0.0,0.0,90,0.00,,,0.00,meteohub,2013-02-05 01:48:00,
2013-02-04 17:53:00,48.7,46.2,29.94,NW,306,0.0,0.0,91,0.00,,,0.00,meteohub,2013-02-05 01:53:00,
2013-02-04 17:58:00,48.4,45.9,29.94,NW,306,0.0,0.0,91,0.00,,,0.00,meteohub,2013-02-05 01:58:00,
2013-02-04 18:03:00,48.0,45.9,29.94,NW,306,0.0,0.0,92,0.00,,,0.00,meteohub,2013-02-05 02:03:00,
2013-02-04 18:08:00,47.8,45.9,29.94,NW,306,0.0,0.0,93,0.00,,,0.00,meteohub,2013-02-05 02:08:00,
2013-02-04 18:13:00,47.5,45.5,29.94,NW,306,0.0,0.0,93,0.00,,,0.00,meteohub,2013-02-05 02:13:00,
2013-02-04 18:18:00,47.3,45.3,29.94,NW,306,0.0,0.0,93,0.00,,,0.00,meteohub,2013-02-05 02:18:00,
2013-02-04 18:23:00,46.9,45.0,29.94,NW,306,0.0,0.0,93,0.00,,,0.00,meteohub,2013-02-05 02:23:00,
2013-02-04 18:28:00,46.8,44.8,29.95,NW,306,0.0,0.0,93,0.00,,,0.00,meteohub,2013-02-05 02:28:00,
2013-02-04 18:33:00,46.6,45.0,29.95,NW,306,0.0,0.0,94,0.00,,,0.00,meteohub,2013-02-05 02:33:00,
2013-02-04 18:38:00,46.6,45.1,29.95,NW,306,0.0,0.0,95,0.00,,,0.00,meteohub,2013-02-05 02:38:00,
2013-02-04 18:43:00,46.6,45.1,29.95,NW,306,0.0,0.0,95,0.00,,,0.00,meteohub,2013-02-05 02:43:00,
2013-02-04 18:48:00,46.6,45.1,29.95,NW,306,0.0,0.0,95,0.00,,,0.00,meteohub,2013-02-05 02:48:00,
2013-02-04 18:53:00,46.2,44.8,29.95,NW,306,0.0,0.0,95,0.00,,,0.00,meteohub,2013-02-05 02:53:00,
2013-02-04 18:58:00,46.0,44.4,29.96,NW,306,0.0,0.0,94,0.00,,,0.00,meteohub,2013-02-05 02:58:00,
2013-02-04 19:03:00,45.7,44.1,29.96,NW,305,0.0,0.0,94,0.00,,,0.00,meteohub,2013-02-05 03:03:00,
2013-02-04 19:08:00,45.3,43.7,29.96,NW,306,0.0,0.0,94,0.00,,,0.00,meteohub,2013-02-05 03:08:00,
2013-02-04 19:13:00,45.1,43.5,29.96,NW,306,0.0,0.0,94,0.00,,,0.00,meteohub,2013-02-05 03:13:00,
2013-02-04 19:18:00,45.0,43.3,29.96,NW,306,0.0,0.0,94,0.00,,,0.00,meteohub,2013-02-05 03:18:00,
2013-02-04 19:23:00,44.6,43.0,29.96,NW,306,0.0,0.0,94,0.00,,,0.00,meteohub,2013-02-05 03:23:00,
2013-02-04 19:28:00,44.2,42.6,29.96,NW,306,0.0,0.0,94,0.00,,,0.00,meteohub,2013-02-05 03:28:00,
2013-02-04 19:33:00,44.1,42.4,29.96,NW,306,0.0,0.0,94,0.00,,,0.00,meteohub,2013-02-05 03:33:00,
2013-02-04 19:38:00,43.7,42.1,29.96,NW,306,0.0,0.0,94,0.00,,,0.00,meteohub,2013-02-05 03:38:00,
2013-02-04 19:44:00,43.3,41.7,29.96,NW,306,0.0,0.0,94,0.00,,,0.00,meteohub,2013-02-05 03:44:00,
2013-02-04 19:49:00,43.3,42.1,29.96,NW,306,0.0,0.0,95,0.00,,,0.00,meteohub,2013-02-05 03:49:00,
2013-02-04 19:54:00,43.2,41.9,29.96,NW,306,0.0,0.0,95,0.00,,,0.00,meteohub,2013-02-05 03:54:00,
2013-02-04 19:59:00,43.0,41.4,29.96,NW,306,0.0,0.0,94,0.00,,,0.00,meteohub,2013-02-05 03:59:00,
2013-02-04 20:04:00,42.6,41.4,29.96,NW,306,0.0,0.0,95,0.00,,,0.00,meteohub,2013-02-05 04:04:00,
2013-02-04 20:09:00,42.6,41.5,29.95,NW,306,0.0,0.0,96,0.00,,,0.00,meteohub,2013-02-05 04:09:00,
2013-02-04 20:14:00,42.4,41.4,29.95,NW,306,0.0,0.0,96,0.00,,,0.00,meteohub,2013-02-05 04:14:00,
2013-02-04 20:19:00,42.4,41.4,29.95,NW,306,0.0,0.0,96,0.00,,,0.00,meteohub,2013-02-05 04:19:00,
2013-02-04 20:24:00,42.4,42.4,29.95,NW,306,0.0,0.0,100,0.00,,,0.00,meteohub,2013-02-05 04:24:00,
2013-02-04 20:29:00,42.4,41.4,29.95,NW,306,0.0,0.0,96,0.00,,,0.00,meteohub,2013-02-05 04:29:00,
2013-02-04 20:34:00,42.4,41.4,29.95,NW,306,0.0,0.0,96,0.00,,,0.00,meteohub,2013-02-05 04:34:00,
2013-02-04 20:39:00,42.4,41.4,29.96,NW,306,0.0,0.0,96,0.00,,,0.00,meteohub,2013-02-05 04:39:00,
2013-02-04 20:44:00,42.3,41.2,29.96,NW,306,0.0,0.0,96,0.00,,,0.00,meteohub,2013-02-05 04:44:00,
2013-02-04 20:49:00,42.3,41.2,29.96,NW,306,0.0,0.0,96,0.00,,,0.00,meteohub,2013-02-05 04:49:00,
2013-02-04 20:54:00,42.1,41.0,29.96,NW,306,0.0,0.0,96,0.00,,,0.00,meteohub,2013-02-05 04:54:00,
2013-02-04 20:59:00,42.1,41.0,29.96,NW,306,0.0,0.0,96,0.00,,,0.00,meteohub,2013-02-05 04:59:00,
2013-02-04 21:00:00,42.1,41.0,29.96,NW,306,0.0,0.0,96,0.00,,,0.00,meteohub,2013-02-05 05:00:00,
2013-02-04 21:06:00,42.1,41.0,29.96,NW,306,0.0,0.0,96,0.00,,,0.00,meteohub,2013-02-05 05:06:00,
2013-02-04 21:11:00,42.1,41.0,29.97,NW,306,0.0,0.0,96,0.00,,,0.00,meteohub,2013-02-05 05:11:00,
2013-02-04 21:16:00,42.1,41.0,29.97,NW,306,0.0,0.0,96,0.00,,,0.00,meteohub,2013-02-05 05:16:00,
2013-02-04 21:21:00,42.1,41.4,29.97,NW,306,0.0,0.0,97,0.00,,,0.00,meteohub,2013-02-05 05:21:00,
2013-02-04 21:26:00,42.1,41.4,29.96,NW,306,0.0,0.0,97,0.00,,,0.00,meteohub,2013-02-05 05:26:00,
2013-02-04 21:31:00,42.3,41.5,29.96,NW,306,0.0,0.0,97,0.00,,,0.00,meteohub,2013-02-05 05:31:00,
2013-02-04 21:36:00,42.4,41.7,29.96,NW,306,0.0,0.0,97,0.00,,,0.00,meteohub,2013-02-05 05:36:00,
2013-02-04 21:41:00,42.6,41.9,29.96,NW,306,0.0,0.0,97,0.00,,,0.00,meteohub,2013-02-05 05:41:00,
2013-02-04 21:46:00,42.8,42.3,29.96,NW,306,0.0,0.0,98,0.00,,,0.00,meteohub,2013-02-05 05:46:00,
2013-02-04 21:51:00,43.0,42.3,29.96,NW,306,0.0,0.0,97,0.00,,,0.00,meteohub,2013-02-05 05:51:00,
2013-02-04 21:56:00,43.3,42.8,29.97,NW,306,0.0,0.0,98,0.00,,,0.00,meteohub,2013-02-05 05:56:00,
2013-02-04 22:01:00,43.3,42.6,29.97,NW,306,0.0,0.0,97,0.00,,,0.00,meteohub,2013-02-05 06:01:00,
2013-02-04 22:06:00,43.3,42.8,29.97,NW,306,0.0,0.0,98,0.00,,,0.00,meteohub,2013-02-05 06:06:00,
2013-02-04 22:11:00,43.5,43.0,29.97,NW,306,0.0,0.0,98,0.00,,,0.00,meteohub,2013-02-05 06:11:00,
2013-02-04 22:16:00,43.5,43.0,29.97,NW,306,0.0,1.0,98,0.00,,,0.00,meteohub,2013-02-05 06:16:00,
2013-02-04 22:21:00,43.7,43.2,29.97,NW,306,0.0,1.0,98,0.00,,,0.00,meteohub,2013-02-05 06:21:00,
2013-02-04 22:26:00,43.7,43.2,29.96,NW,306,0.0,1.0,98,0.00,,,0.00,meteohub,2013-02-05 06:26:00,
2013-02-04 22:31:00,43.9,43.3,29.96,NW,306,0.0,0.0,98,0.00,,,0.00,meteohub,2013-02-05 06:31:00,
2013-02-04 22:36:00,43.9,43.3,29.96,NW,306,0.0,0.0,98,0.00,,,0.00,meteohub,2013-02-05 06:36:00,
2013-02-04 22:41:00,44.1,43.5,29.96,NW,306,0.0,2.0,98,0.00,,,0.00,meteohub,2013-02-05 06:41:00,
2013-02-04 22:46:00,44.1,43.5,29.96,NW,306,0.0,2.0,98,0.00,,,0.00,meteohub,2013-02-05 06:46:00,
2013-02-04 22:51:00,44.1,43.5,29.96,NW,306,0.0,2.0,98,0.00,,,0.00,meteohub,2013-02-05 06:51:00,
2013-02-04 22:56:00,44.1,43.5,29.96,NW,306,0.0,3.0,98,0.00,,,0.00,meteohub,2013-02-05 06:56:00,
2013-02-04 23:01:00,44.1,43.3,29.96,NW,306,0.0,3.0,97,0.00,,,0.00,meteohub,2013-02-05 07:01:00,
2013-02-04 23:06:00,44.1,43.3,29.96,NW,306,0.0,3.0,97,0.00,,,0.00,meteohub,2013-02-05 07:06:00,
2013-02-04 23:11:00,44.1,43.3,29.96,NW,306,0.0,0.0,97,0.00,,,0.00,meteohub,2013-02-05 07:11:00,
2013-02-04 23:16:00,44.1,43.3,29.96,NW,306,0.0,2.0,97,0.00,,,0.00,meteohub,2013-02-05 07:16:00,
2013-02-04 23:21:00,44.1,43.3,29.96,NW,306,0.0,2.0,97,0.00,,,0.00,meteohub,2013-02-05 07:21:00,
2013-02-04 23:26:00,44.1,43.3,29.96,NW,306,0.0,0.0,97,0.00,,,0.00,meteohub,2013-02-05 07:26:00,
2013-02-04 23:31:00,44.1,43.3,29.96,NW,306,0.0,0.0,97,0.00,,,0.00,meteohub,2013-02-05 07:31:00,
2013-02-04 23:36:00,44.1,43.3,29.96,NW,306,0.0,0.0,97,0.00,,,0.00,meteohub,2013-02-05 07:36:00,
2013-02-04 23:41:00,44.1,43.3,29.96,NW,306,0.0,0.0,97,0.00,,,0.00,meteohub,2013-02-05 07:41:00,
2013-02-04 23:46:00,43.9,43.2,29.96,NW,306,0.0,0.0,97,0.00,,,0.00,meteohub,2013-02-05 07:46:00,
2013-02-04 23:51:00,43.9,43.2,29.96,NW,306,0.0,0.0,97,0.00,,,0.00,meteohub,2013-02-05 07:51:00,
2013-02-04 23:56:00,43.9,43.2,29.96,NW,306,0.0,0.0,97,0.00,,,0.00,meteohub,2013-02-05 07:56:00,